Aérodrome :
LOGIN :

S'inscrire | Disclaimer

   EN    FR    IT 

 










Légende :    VFR   VFR Marginal   IFR   IFR Intensif   IFR Très Intensif
Visi : 
Plafond : 
>= 8 km
>= 3000ft
5 à 8 km
1000 à 3000 ft
1500m à 5 km
500 à 1000 ft
800 à 1500m
200 à 500 ft
< 800m
< 200 ft
Symboles :   Orages  Brouillard  Fortes neiges  Fortes précipitations  Vent > 20 kt
SIGMETs :   Divers  Orages  Givrage  Turbulence  Onde Orograph.  Cendres Volcan.







- Altitude de l'aérodrome : 17 ft
- Code IATA : CPH


EKCH - København - Kastrup (Copenhagen)

DERNIER METAR :
  • 170550Z 14009KT CAVOK 17/14 Q1020 NOSIG

METARs EXPIRÉS :
  • 170520Z 14007KT CAVOK 16/15 Q1020 NOSIG
  • 170450Z 14006KT CAVOK 16/14 Q1020 NOSIG
  • 170420Z 15005KT CAVOK 15/14 Q1020 NOSIG
  • 170350Z 16002KT CAVOK 14/13 Q1020 NOSIG
  • 170320Z 14006KT CAVOK 14/13 Q1020 NOSIG
  • 170251Z 14006KT CAVOK 15/14 Q1020 TEMPO 3000 BR

TAF TAF EKCH
Valide du 17 à 06h jusqu'au 18 à 06h UTC


170502Z 1706/1806 15003KT 9999 SCT030
BECMG 1707/1710 15012KT
BECMG 1716/1718 4000 RA BKN012
PROB40 1716/1722 TSRA
TEMPO 1718/1722 8000 -RA SCT015CB BKN020
BECMG 1722/1724 22010KT 9999 NSW BKN020
TEMPO 1800/1806 4000 BR BKN008
Pas de NOTAMs connus pour ce terrain.



MET'MAP, la Météo Aéronautique d'un coup d'oeil ! - Copyright ORBIFLY Décembre 2007 - Disclaimer

ORBIFLY MET'MAP TEAM :

Programmation & Développement : Alexandra Zaïnal
Conception & Développement : Baudouin d'Aumeries
Co-Programmation & Développement : Marc-Olivier Méhu
Soutien technique & logistique : Manuel Goepfert

Contact : metmap@orbifly.com




SOURCES & CREDITS :

   NOAA